sensor_id;sensor_type;location;lat;lon;timestamp;pressure;altitude;pressure_sealevel;temperature;humidity
56402;BME280;42299;35.160;26.100;2023-11-19T00:02:21;100610.16;;;15.77;100.00
56402;BME280;42299;35.160;26.100;2023-11-19T00:12:45;100624.50;;;15.58;100.00
56402;BME280;42299;35.160;26.100;2023-11-19T00:23:10;100638.91;;;15.18;100.00
56402;BME280;42299;35.160;26.100;2023-11-19T00:33:33;100634.50;;;15.15;100.00
56402;BME280;42299;35.160;26.100;2023-11-19T00:43:58;100642.50;;;15.07;100.00
56402;BME280;42299;35.160;26.100;2023-11-19T00:54:20;100654.09;;;14.91;100.00
56402;BME280;42299;35.160;26.100;2023-11-19T01:04:47;100655.09;;;14.46;100.00
56402;BME280;42299;35.160;26.100;2023-11-19T01:15:11;100668.34;;;14.69;100.00
56402;BME280;42299;35.160;26.100;2023-11-19T01:25:35;100679.84;;;14.66;100.00
56402;BME280;42299;35.160;26.100;2023-11-19T01:35:59;100677.22;;;14.54;100.00
56402;BME280;42299;35.160;26.100;2023-11-19T01:46:23;100693.16;;;14.66;100.00
56402;BME280;42299;35.160;26.100;2023-11-19T01:56:46;100696.75;;;14.43;100.00
56402;BME280;42299;35.160;26.100;2023-11-19T02:07:10;100706.44;;;14.19;100.00
56402;BME280;42299;35.160;26.100;2023-11-19T02:17:35;100699.34;;;14.12;100.00
56402;BME280;42299;35.160;26.100;2023-11-19T02:28:01;100671.06;;;14.29;100.00
56402;BME280;42299;35.160;26.100;2023-11-19T02:38:25;100661.31;;;14.07;100.00
56402;BME280;42299;35.160;26.100;2023-11-19T02:48:49;100680.78;;;13.98;100.00
56402;BME280;42299;35.160;26.100;2023-11-19T02:59:12;100639.22;;;13.82;100.00
56402;BME280;42299;35.160;26.100;2023-11-19T03:09:49;100649.84;;;13.84;100.00
56402;BME280;42299;35.160;26.100;2023-11-19T03:20:12;100619.72;;;13.73;100.00
56402;BME280;42299;35.160;26.100;2023-11-19T03:30:38;100628.59;;;13.72;100.00
56402;BME280;42299;35.160;26.100;2023-11-19T03:41:00;100639.22;;;13.72;100.00
56402;BME280;42299;35.160;26.100;2023-11-19T03:51:25;100660.44;;;13.81;100.00
56402;BME280;42299;35.160;26.100;2023-11-19T04:01:47;100676.38;;;13.84;100.00
56402;BME280;42299;35.160;26.100;2023-11-19T04:12:11;100676.34;;;13.76;100.00
56402;BME280;42299;35.160;26.100;2023-11-19T04:22:33;100701.09;;;13.68;100.00
56402;BME280;42299;35.160;26.100;2023-11-19T04:32:59;100707.25;;;13.59;100.00
56402;BME280;42299;35.160;26.100;2023-11-19T04:43:21;100732.94;;;13.65;100.00
56402;BME280;42299;35.160;26.100;2023-11-19T04:53:45;100715.25;;;13.65;100.00
56402;BME280;42299;35.160;26.100;2023-11-19T05:04:08;100743.53;;;13.65;100.00
56402;BME280;42299;35.160;26.100;2023-11-19T05:14:32;100727.63;;;13.59;100.00
56402;BME280;42299;35.160;26.100;2023-11-19T05:24:54;100721.41;;;13.61;100.00
56402;BME280;42299;35.160;26.100;2023-11-19T05:35:19;100757.66;;;13.57;100.00
56402;BME280;42299;35.160;26.100;2023-11-19T05:45:42;100761.16;;;13.47;100.00
56402;BME280;42299;35.160;26.100;2023-11-19T05:56:06;100785.09;;;13.63;100.00
56402;BME280;42299;35.160;26.100;2023-11-19T06:06:31;100812.50;;;13.68;100.00
56402;BME280;42299;35.160;26.100;2023-11-19T06:16:55;100834.72;;;14.02;100.00
56402;BME280;42299;35.160;26.100;2023-11-19T06:27:17;100823.34;;;14.44;100.00
56402;BME280;42299;35.160;26.100;2023-11-19T06:37:42;100815.34;;;14.77;100.00
56402;BME280;42299;35.160;26.100;2023-11-19T06:48:05;100853.47;;;14.61;100.00
56402;BME280;42299;35.160;26.100;2023-11-19T06:58:29;100862.31;;;14.67;100.00
56402;BME280;42299;35.160;26.100;2023-11-19T07:08:52;100873.84;;;14.80;100.00
56402;BME280;42299;35.160;26.100;2023-11-19T07:19:17;100885.34;;;15.22;100.00
56402;BME280;42299;35.160;26.100;2023-11-19T07:29:39;100897.75;;;15.07;100.00
56402;BME280;42299;35.160;26.100;2023-11-19T07:40:07;100903.06;;;15.10;100.00
56402;BME280;42299;35.160;26.100;2023-11-19T07:50:33;100906.59;;;15.34;100.00
56402;BME280;42299;35.160;26.100;2023-11-19T08:00:57;100924.31;;;14.68;100.00
56402;BME280;42299;35.160;26.100;2023-11-19T08:11:19;100907.50;;;14.95;100.00
56402;BME280;42299;35.160;26.100;2023-11-19T08:21:44;100915.38;;;15.87;100.00
56402;BME280;42299;35.160;26.100;2023-11-19T08:32:06;100901.13;;;15.91;100.00
56402;BME280;42299;35.160;26.100;2023-11-19T08:42:30;100903.59;;;16.29;100.00
56402;BME280;42299;35.160;26.100;2023-11-19T08:52:53;100918.13;;;14.81;100.00
56402;BME280;42299;35.160;26.100;2023-11-19T09:03:17;100940.22;;;14.59;100.00
56402;BME280;42299;35.160;26.100;2023-11-19T09:13:41;100927.88;;;14.76;100.00
56402;BME280;42299;35.160;26.100;2023-11-19T09:24:06;100940.28;;;15.41;100.00
56402;BME280;42299;35.160;26.100;2023-11-19T09:34:28;100940.28;;;15.68;100.00
56402;BME280;42299;35.160;26.100;2023-11-19T09:44:53;100920.78;;;15.42;100.00
56402;BME280;42299;35.160;26.100;2023-11-19T09:55:17;100920.41;;;16.45;100.00
56402;BME280;42299;35.160;26.100;2023-11-19T10:05:41;100937.16;;;16.70;100.00
56402;BME280;42299;35.160;26.100;2023-11-19T10:16:08;100939.88;;;16.55;100.00
56402;BME280;42299;35.160;26.100;2023-11-19T10:26:36;100969.19;;;16.67;100.00
56402;BME280;42299;35.160;26.100;2023-11-19T10:36:59;100976.25;;;16.68;100.00
56402;BME280;42299;35.160;26.100;2023-11-19T10:47:23;100989.81;;;16.18;100.00
56402;BME280;42299;35.160;26.100;2023-11-19T10:57:47;100993.44;;;15.89;100.00
56402;BME280;42299;35.160;26.100;2023-11-19T11:08:13;100974.50;;;16.64;100.00
56402;BME280;42299;35.160;26.100;2023-11-19T11:18:36;100984.53;;;16.04;100.00
56402;BME280;42299;35.160;26.100;2023-11-19T11:29:02;100994.31;;;15.93;100.00
56402;BME280;42299;35.160;26.100;2023-11-19T11:39:28;101005.00;;;15.52;100.00
56402;BME280;42299;35.160;26.100;2023-11-19T11:49:53;100988.13;;;15.50;100.00
56402;BME280;42299;35.160;26.100;2023-11-19T12:00:21;100990.78;;;15.85;100.00
56402;BME280;42299;35.160;26.100;2023-11-19T12:10:48;100981.84;;;16.12;100.00
56402;BME280;42299;35.160;26.100;2023-11-19T12:21:11;100995.19;;;16.07;100.00
56402;BME280;42299;35.160;26.100;2023-11-19T12:31:35;101012.88;;;16.25;100.00
56402;BME280;42299;35.160;26.100;2023-11-19T12:41:58;100995.03;;;16.42;100.00
56402;BME280;42299;35.160;26.100;2023-11-19T12:52:22;101000.47;;;16.19;100.00
56402;BME280;42299;35.160;26.100;2023-11-19T13:02:46;101013.78;;;16.16;100.00
56402;BME280;42299;35.160;26.100;2023-11-19T13:13:11;101022.66;;;16.17;100.00
56402;BME280;42299;35.160;26.100;2023-11-19T13:23:35;101008.50;;;15.97;100.00
56402;BME280;42299;35.160;26.100;2023-11-19T13:34:03;101028.97;;;15.73;100.00
56402;BME280;42299;35.160;26.100;2023-11-19T13:44:28;101046.69;;;15.62;100.00
56402;BME280;42299;35.160;26.100;2023-11-19T13:54:52;101044.03;;;15.41;100.00
56402;BME280;42299;35.160;26.100;2023-11-19T14:05:15;101066.19;;;15.50;100.00
56402;BME280;42299;35.160;26.100;2023-11-19T14:15:42;101073.28;;;15.32;100.00
56402;BME280;42299;35.160;26.100;2023-11-19T14:26:06;101086.59;;;15.29;100.00
56402;BME280;42299;35.160;26.100;2023-11-19T14:36:31;101098.09;;;15.19;100.00
56402;BME280;42299;35.160;26.100;2023-11-19T14:46:53;101127.34;;;15.14;100.00
56402;BME280;42299;35.160;26.100;2023-11-19T14:57:17;101153.91;;;15.06;100.00
56402;BME280;42299;35.160;26.100;2023-11-19T15:07:46;101155.66;;;15.03;100.00
56402;BME280;42299;35.160;26.100;2023-11-19T15:18:11;101160.09;;;15.02;100.00
56402;BME280;42299;35.160;26.100;2023-11-19T15:28:34;101164.50;;;15.00;100.00
56402;BME280;42299;35.160;26.100;2023-11-19T15:38:58;101148.56;;;15.00;100.00
56402;BME280;42299;35.160;26.100;2023-11-19T15:49:21;101159.16;;;14.93;100.00
56402;BME280;42299;35.160;26.100;2023-11-19T15:59:45;101177.75;;;14.88;100.00
56402;BME280;42299;35.160;26.100;2023-11-19T16:10:09;101199.88;;;14.83;100.00
56402;BME280;42299;35.160;26.100;2023-11-19T16:20:35;101197.22;;;14.81;100.00
56402;BME280;42299;35.160;26.100;2023-11-19T16:30:58;101189.19;;;14.72;100.00
56402;BME280;42299;35.160;26.100;2023-11-19T16:41:23;101200.75;;;14.82;100.00
56402;BME280;42299;35.160;26.100;2023-11-19T16:51:45;101200.84;;;15.00;100.00
56402;BME280;42299;35.160;26.100;2023-11-19T17:02:10;101211.53;;;15.13;100.00
56402;BME280;42299;35.160;26.100;2023-11-19T17:12:33;101227.50;;;15.13;100.00
56402;BME280;42299;35.160;26.100;2023-11-19T17:22:58;101215.97;;;15.11;100.00
56402;BME280;42299;35.160;26.100;2023-11-19T17:33:21;101225.75;;;15.19;100.00
56402;BME280;42299;35.160;26.100;2023-11-19T17:43:45;101219.56;;;15.23;100.00
56402;BME280;42299;35.160;26.100;2023-11-19T17:54:09;101240.84;;;15.23;100.00
56402;BME280;42299;35.160;26.100;2023-11-19T18:04:34;101232.84;;;15.24;100.00
56402;BME280;42299;35.160;26.100;2023-11-19T18:14:59;101235.53;;;15.23;100.00
56402;BME280;42299;35.160;26.100;2023-11-19T18:25:23;101248.81;;;15.23;100.00
56402;BME280;42299;35.160;26.100;2023-11-19T18:35:46;101243.47;;;15.15;100.00
56402;BME280;42299;35.160;26.100;2023-11-19T18:46:10;101231.94;;;15.14;100.00
56402;BME280;42299;35.160;26.100;2023-11-19T18:56:34;101227.50;;;15.16;100.00
56402;BME280;42299;35.160;26.100;2023-11-19T19:06:58;101239.94;;;15.24;100.00
56402;BME280;42299;35.160;26.100;2023-11-19T19:17:22;101246.13;;;15.18;100.00
56402;BME280;42299;35.160;26.100;2023-11-19T19:27:46;101241.69;;;15.12;100.00
56402;BME280;42299;35.160;26.100;2023-11-19T19:38:09;101257.63;;;15.08;100.00
56402;BME280;42299;35.160;26.100;2023-11-19T19:48:34;101270.88;;;15.02;100.00
56402;BME280;42299;35.160;26.100;2023-11-19T19:58:56;101262.88;;;14.99;100.00
56402;BME280;42299;35.160;26.100;2023-11-19T20:09:20;101275.31;;;15.03;100.00
56402;BME280;42299;35.160;26.100;2023-11-19T20:19:43;101293.03;;;15.05;100.00
56402;BME280;42299;35.160;26.100;2023-11-19T20:30:10;101292.19;;;15.08;100.00
56402;BME280;42299;35.160;26.100;2023-11-19T20:40:32;101301.91;;;15.04;100.00
56402;BME280;42299;35.160;26.100;2023-11-19T20:50:56;101309.00;;;15.02;100.00
56402;BME280;42299;35.160;26.100;2023-11-19T21:01:20;101316.03;;;14.94;100.00
56402;BME280;42299;35.160;26.100;2023-11-19T21:11:44;101309.78;;;14.88;100.00
56402;BME280;42299;35.160;26.100;2023-11-19T21:22:06;101311.53;;;14.86;100.00
56402;BME280;42299;35.160;26.100;2023-11-19T21:32:31;101311.50;;;14.80;100.00
56402;BME280;42299;35.160;26.100;2023-11-19T21:42:54;101330.94;;;14.77;100.00
56402;BME280;42299;35.160;26.100;2023-11-19T21:53:19;101327.41;;;14.73;100.00
56402;BME280;42299;35.160;26.100;2023-11-19T22:03:41;101325.56;;;14.66;100.00
56402;BME280;42299;35.160;26.100;2023-11-19T22:14:06;101351.16;;;14.54;100.00
56402;BME280;42299;35.160;26.100;2023-11-19T22:24:29;101346.63;;;14.45;100.00
56402;BME280;42299;35.160;26.100;2023-11-19T22:34:53;101335.03;;;14.37;100.00
56402;BME280;42299;35.160;26.100;2023-11-19T22:45:16;101335.84;;;14.31;100.00
56402;BME280;42299;35.160;26.100;2023-11-19T22:55:40;101339.41;;;14.30;100.00
56402;BME280;42299;35.160;26.100;2023-11-19T23:06:03;101324.28;;;14.26;100.00
56402;BME280;42299;35.160;26.100;2023-11-19T23:16:28;101326.09;;;14.29;100.00
56402;BME280;42299;35.160;26.100;2023-11-19T23:26:50;101317.25;;;14.28;100.00
56402;BME280;42299;35.160;26.100;2023-11-19T23:37:14;101306.63;;;14.30;100.00
56402;BME280;42299;35.160;26.100;2023-11-19T23:47:37;101293.34;;;14.31;100.00
56402;BME280;42299;35.160;26.100;2023-11-19T23:58:01;101281.81;;;14.31;100.00
